createdAt,value
2019-06-15T00:30:33.768Z,99.90
2019-06-15T00:33:11.941Z,99.90
2019-06-15T00:36:03.857Z,99.90
2019-06-15T00:38:38.821Z,99.90
2019-06-15T00:41:16.978Z,99.90
2019-06-15T00:44:03.331Z,99.90
2019-06-15T00:46:58.538Z,99.90
2019-06-15T00:49:43.094Z,99.90
2019-06-15T00:52:17.281Z,99.90
2019-06-15T00:55:11.821Z,99.90
2019-06-15T00:57:52.817Z,99.90
2019-06-15T01:03:18.662Z,99.90
2019-06-15T01:06:02.077Z,99.90
2019-06-15T01:08:33.795Z,99.90
2019-06-15T01:11:15.678Z,99.90
2019-06-15T01:16:56.042Z,99.90
2019-06-15T01:22:20.525Z,99.90
2019-06-15T01:25:05.949Z,99.90
2019-06-15T01:27:41.408Z,99.90
2019-06-15T01:30:28.407Z,99.90
2019-06-15T01:33:04.959Z,99.90
2019-06-15T01:35:35.881Z,99.90
2019-06-15T01:38:08.314Z,99.90
2019-06-15T01:40:40.059Z,99.90
2019-06-15T01:43:13.914Z,99.90
2019-06-15T01:45:52.970Z,99.90
2019-06-15T01:48:41.002Z,99.90
2019-06-15T01:51:14.976Z,99.90
2019-06-15T01:54:07.083Z,99.90
2019-06-15T01:56:42.003Z,99.90
2019-06-15T01:59:21.682Z,99.90
2019-06-15T02:01:53.520Z,99.90
2019-06-15T02:04:28.731Z,99.90
2019-06-15T02:07:01.369Z,99.90
2019-06-15T02:09:34.390Z,99.90
2019-06-15T02:12:06.038Z,99.90
2019-06-15T02:15:15.455Z,99.90
2019-06-15T02:17:57.113Z,99.90
2019-06-15T02:20:42.290Z,99.90
2019-06-15T02:30:17.936Z,99.90
2019-06-15T02:40:57.346Z,99.90
2019-06-15T03:01:08.148Z,99.90
2019-06-15T03:04:07.835Z,99.90
2019-06-15T03:10:14.993Z,99.90
2019-06-15T03:25:26.819Z,99.90
2019-06-15T03:34:57.023Z,99.90
2019-06-15T03:40:36.474Z,99.90
2019-06-15T03:43:34.483Z,99.90
2019-06-15T03:53:26.373Z,99.90
2019-06-15T03:56:21.537Z,99.90
2019-06-15T03:59:07.365Z,99.90
2019-06-15T04:01:51.995Z,99.90
2019-06-15T04:04:29.025Z,99.90
2019-06-15T04:07:01.054Z,99.90
2019-06-15T04:09:49.226Z,99.90
2019-06-15T04:12:28.767Z,99.90
2019-06-15T04:15:08.708Z,99.90
2019-06-15T04:17:40.636Z,99.90
2019-06-15T04:20:16.376Z,99.90
2019-06-15T04:22:50.620Z,99.90
2019-06-15T04:25:23.642Z,99.90
2019-06-15T04:27:57.932Z,99.90
2019-06-15T04:33:41.431Z,99.90
2019-06-15T04:36:12.595Z,99.90
2019-06-15T04:38:44.629Z,99.90
2019-06-15T04:41:16.988Z,99.90
2019-06-15T04:43:59.154Z,99.90
2019-06-15T04:46:44.967Z,99.90
2019-06-15T04:49:27.587Z,99.90
2019-06-15T04:52:01.658Z,99.90
2019-06-15T04:54:37.534Z,99.90
2019-06-15T04:57:13.810Z,99.90
2019-06-15T04:59:58.629Z,99.90
2019-06-15T05:02:31.538Z,99.90
2019-06-15T05:05:42.567Z,99.90
2019-06-15T05:08:25.109Z,99.90
2019-06-15T05:11:13.403Z,99.90
2019-06-15T05:14:00.197Z,99.90
2019-06-15T05:16:30.090Z,99.90
2019-06-15T05:19:00.771Z,99.90
2019-06-15T05:21:34.306Z,99.90
2019-06-15T05:24:04.153Z,99.90
2019-06-15T05:26:33.891Z,99.90
2019-06-15T05:29:03.960Z,99.90
2019-06-15T05:31:33.779Z,99.90
2019-06-15T05:34:03.622Z,99.90
2019-06-15T05:36:34.708Z,99.90
2019-06-15T05:39:06.080Z,99.90
2019-06-15T05:41:35.840Z,99.90
2019-06-15T05:44:05.891Z,99.90
2019-06-15T05:46:35.719Z,99.90
2019-06-15T05:49:05.728Z,99.90
2019-06-15T05:51:35.644Z,99.90
2019-06-15T05:54:05.535Z,99.90
2019-06-15T05:56:35.568Z,99.90
2019-06-15T05:59:05.477Z,99.90
2019-06-15T06:01:35.285Z,99.90
2019-06-15T06:04:05.104Z,99.90
2019-06-15T06:06:34.938Z,99.90
2019-06-15T06:09:05.841Z,99.90
2019-06-15T06:11:35.660Z,99.90
2019-06-15T06:14:05.664Z,99.90
2019-06-15T06:16:35.538Z,99.90
2019-06-15T06:19:05.375Z,99.90
2019-06-15T06:21:37.680Z,99.90
2019-06-15T06:24:07.433Z,99.90
2019-06-15T06:26:37.176Z,99.90
2019-06-15T06:29:06.978Z,99.90
2019-06-15T06:31:36.740Z,99.90
2019-06-15T06:34:06.579Z,99.90
2019-06-15T06:36:36.320Z,99.90
2019-06-15T06:39:08.528Z,99.90
2019-06-15T06:41:38.355Z,99.90
2019-06-15T06:44:08.170Z,99.90
2019-06-15T06:46:38.011Z,99.90
2019-06-15T06:49:10.264Z,99.90
2019-06-15T06:51:40.178Z,99.90
2019-06-15T06:54:09.998Z,99.90
2019-06-15T06:56:39.871Z,99.90
2019-06-15T06:59:09.711Z,99.90
2019-06-15T07:01:39.618Z,99.90
2019-06-15T07:04:10.299Z,99.90
2019-06-15T07:06:40.144Z,99.90
2019-06-15T07:09:10.067Z,99.90
2019-06-15T07:11:40.093Z,98.20
2019-06-15T07:14:09.810Z,96.00
2019-06-15T07:16:39.647Z,94.20
2019-06-15T07:19:09.525Z,92.10
2019-06-15T07:21:39.427Z,90.40
2019-06-15T07:24:09.244Z,87.40
2019-06-15T07:26:41.761Z,84.00
2019-06-15T07:29:12.665Z,81.50
2019-06-15T07:31:42.591Z,79.90
2019-06-15T07:34:12.511Z,78.10
2019-06-15T07:36:44.358Z,78.10
2019-06-15T07:39:18.464Z,78.20
2019-06-15T07:41:51.121Z,77.40
2019-06-15T07:44:21.993Z,76.70
2019-06-15T07:46:51.803Z,75.20
2019-06-15T07:49:23.874Z,74.10
2019-06-15T07:51:53.752Z,72.20
2019-06-15T07:54:23.591Z,70.70
2019-06-15T07:56:53.513Z,70.80
2019-06-15T07:59:23.424Z,70.70
2019-06-15T08:01:55.294Z,69.90
2019-06-15T08:04:24.872Z,69.30
2019-06-15T08:06:54.815Z,68.60
2019-06-15T08:09:24.644Z,67.90
2019-06-15T08:11:54.841Z,67.70
2019-06-15T08:14:24.760Z,67.10
2019-06-15T08:22:26.199Z,67.20
2019-06-15T08:25:00.964Z,67.40
2019-06-15T08:27:31.040Z,67.70
2019-06-15T08:30:02.661Z,69.30
2019-06-15T08:32:32.663Z,69.30
2019-06-15T08:35:03.692Z,67.50
2019-06-15T08:37:35.057Z,64.90
2019-06-15T08:40:06.461Z,64.10
2019-06-15T08:42:36.288Z,63.00
2019-06-15T08:45:06.791Z,62.80
2019-06-15T08:47:36.684Z,62.40
2019-06-15T08:50:07.801Z,63.30
2019-06-15T08:52:37.594Z,64.10
2019-06-15T08:55:08.907Z,65.40
2019-06-15T08:57:42.328Z,66.30
2019-06-15T09:00:12.379Z,66.60
2019-06-15T09:02:45.023Z,66.80
2019-06-15T09:05:21.739Z,67.40
2019-06-15T09:07:53.096Z,68.30
2019-06-15T09:10:28.986Z,68.90
2019-06-15T09:13:03.530Z,68.70
2019-06-15T09:15:46.114Z,67.30
2019-06-15T09:18:16.857Z,66.30
2019-06-15T09:20:47.183Z,66.40
2019-06-15T09:23:17.332Z,66.60
2019-06-15T09:25:47.206Z,65.80
2019-06-15T09:28:17.051Z,63.20
2019-06-15T09:30:48.791Z,61.40
2019-06-15T09:33:20.269Z,59.60
2019-06-15T09:35:51.131Z,59.50
2019-06-15T09:38:26.918Z,59.60
2019-06-15T09:40:56.766Z,59.50
2019-06-15T09:43:30.884Z,59.90
2019-06-15T09:46:00.703Z,60.30
2019-06-15T09:48:32.100Z,61.00
2019-06-15T09:51:06.360Z,61.80
2019-06-15T09:53:36.400Z,62.00
2019-06-15T09:56:12.770Z,62.30
2019-06-15T09:58:42.639Z,61.10
2019-06-15T10:01:15.552Z,59.40
2019-06-15T10:03:45.368Z,57.90
2019-06-15T10:06:17.092Z,56.20
2019-06-15T10:08:48.297Z,55.10
2019-06-15T10:11:18.917Z,54.70
2019-06-15T10:13:51.426Z,52.80
2019-06-15T10:16:21.277Z,51.00
2019-06-15T10:18:51.240Z,50.10
2019-06-15T10:21:25.058Z,49.00
2019-06-15T10:23:55.991Z,48.10
2019-06-15T10:26:26.147Z,46.90
2019-06-15T10:28:56.072Z,46.30
2019-06-15T10:31:25.911Z,45.90
2019-06-15T10:33:55.832Z,44.30
2019-06-15T10:36:25.830Z,44.70
2019-06-15T10:38:55.629Z,44.50
2019-06-15T10:41:26.777Z,44.80
2019-06-15T10:43:56.815Z,45.10
2019-06-15T10:46:26.684Z,45.20
2019-06-15T10:48:56.555Z,45.30
2019-06-15T10:51:26.451Z,45.90
2019-06-15T10:53:59.727Z,45.10
2019-06-15T10:56:28.378Z,45.10
2019-06-15T10:58:58.202Z,45.30
2019-06-15T11:01:28.116Z,45.60
2019-06-15T11:03:58.073Z,45.80
2019-06-15T11:06:28.076Z,45.70
2019-06-15T11:08:58.016Z,45.30
2019-06-15T11:11:27.943Z,45.40
2019-06-15T11:13:58.168Z,45.40
2019-06-15T11:16:31.571Z,46.10
2019-06-15T11:19:01.933Z,46.70
2019-06-15T11:21:31.903Z,47.00
2019-06-15T11:24:01.834Z,47.70
2019-06-15T11:26:32.038Z,47.90
2019-06-15T11:29:08.735Z,48.60
2019-06-15T11:31:38.875Z,49.30
2019-06-15T11:34:12.573Z,50.30
2019-06-15T11:36:45.545Z,50.30
2019-06-15T11:39:17.763Z,50.30
2019-06-15T11:41:47.798Z,50.10
2019-06-15T11:44:17.680Z,49.60
2019-06-15T11:46:47.495Z,49.20
2019-06-15T11:49:17.315Z,49.10
2019-06-15T11:51:47.355Z,48.10
2019-06-15T11:54:17.260Z,48.40
2019-06-15T11:56:47.379Z,47.40
2019-06-15T11:59:18.553Z,46.40
2019-06-15T12:01:50.773Z,45.20
2019-06-15T12:04:20.765Z,45.60
2019-06-15T12:06:50.799Z,45.70
2019-06-15T12:20:33.176Z,43.90
2019-06-15T12:23:03.104Z,43.30
2019-06-15T12:25:33.059Z,43.10
2019-06-15T12:28:02.902Z,43.70
2019-06-15T13:37:24.141Z,50.10
2019-06-15T13:42:39.961Z,50.60
2019-06-15T13:45:10.539Z,50.50
2019-06-15T13:47:40.506Z,49.60
2019-06-15T13:50:10.612Z,49.50
2019-06-15T13:52:40.490Z,49.40
2019-06-15T13:55:10.968Z,49.60
2019-06-15T13:57:44.116Z,50.50
2019-06-15T14:00:14.703Z,50.10
2019-06-15T14:02:44.607Z,49.60
2019-06-15T14:10:46.027Z,50.80
2019-06-15T14:13:18.311Z,51.30
2019-06-15T14:15:48.275Z,52.10
2019-06-15T14:18:18.533Z,52.40
2019-06-15T14:20:48.450Z,52.70
2019-06-15T14:23:18.416Z,53.20
2019-06-15T14:25:48.258Z,54.00
2019-06-15T14:28:18.101Z,53.90
2019-06-15T14:30:48.048Z,54.10
2019-06-15T14:33:17.887Z,54.10
2019-06-15T14:35:47.779Z,54.00
2019-06-15T16:00:57.184Z,53.10
2019-06-15T16:03:30.683Z,53.70
2019-06-15T16:06:00.605Z,54.20
2019-06-15T16:08:30.531Z,54.90
2019-06-15T16:11:46.138Z,55.40
2019-06-15T16:14:16.454Z,56.10
2019-06-15T16:16:50.267Z,56.20
2019-06-15T16:19:18.348Z,56.60
2019-06-15T16:21:51.049Z,57.10
2019-06-15T16:24:20.928Z,57.20
2019-06-15T16:26:50.785Z,57.50
2019-06-15T16:29:20.643Z,57.70
2019-06-15T16:31:50.523Z,57.40
2019-06-15T16:34:22.362Z,57.50
2019-06-15T16:36:52.237Z,57.70
2019-06-15T16:39:22.165Z,58.00
2019-06-15T16:41:52.048Z,58.30
2019-06-15T16:44:21.835Z,59.10
2019-06-15T16:46:51.757Z,58.50
2019-06-15T16:49:21.652Z,58.50
2019-06-15T16:51:51.457Z,58.50
2019-06-15T16:54:21.348Z,58.40
2019-06-15T16:56:51.231Z,58.00
2019-06-15T16:59:21.134Z,58.00
2019-06-15T17:01:51.086Z,57.70
2019-06-15T17:04:21.065Z,57.40
2019-06-15T17:06:50.971Z,58.10
2019-06-15T17:09:22.225Z,58.40
2019-06-15T17:11:52.084Z,58.60
2019-06-15T17:14:26.934Z,59.00
2019-06-15T17:16:57.564Z,59.60
2019-06-15T17:19:27.577Z,59.80
2019-06-15T17:22:11.160Z,60.00
2019-06-15T17:24:31.397Z,60.40
2019-06-15T17:27:01.347Z,60.60
2019-06-15T17:29:32.770Z,60.80
2019-06-15T17:32:02.687Z,61.40
2019-06-15T17:34:32.499Z,61.70
2019-06-15T17:37:02.364Z,62.20
2019-06-15T17:39:32.254Z,62.80
2019-06-15T17:42:02.093Z,63.50
2019-06-15T17:44:39.660Z,63.70
2019-06-15T17:47:11.984Z,64.10
2019-06-15T17:49:42.386Z,64.70
2019-06-15T17:52:12.212Z,64.80
2019-06-15T17:54:46.655Z,65.00
2019-06-15T17:57:16.735Z,65.20
2019-06-15T17:59:49.507Z,65.40
2019-06-15T18:02:19.600Z,65.60
2019-06-15T18:04:49.474Z,65.60
2019-06-15T18:07:19.285Z,65.70
2019-06-15T18:09:51.495Z,66.00
2019-06-15T18:12:21.306Z,66.40
2019-06-15T18:14:56.781Z,66.80
2019-06-15T18:17:27.287Z,67.10
2019-06-15T18:20:00.175Z,67.40
2019-06-15T18:22:31.718Z,67.70
2019-06-15T18:25:06.032Z,68.30
2019-06-15T18:27:37.035Z,68.90
2019-06-15T18:30:06.563Z,70.20
2019-06-15T18:32:37.845Z,70.10
2019-06-15T18:35:10.055Z,70.60
2019-06-15T18:37:41.770Z,70.90
2019-06-15T18:40:16.070Z,71.50
2019-06-15T18:42:46.443Z,72.00
2019-06-15T18:45:19.704Z,72.40
2019-06-15T18:47:49.640Z,73.10
2019-06-15T18:50:37.712Z,73.60
2019-06-15T18:53:09.205Z,74.00
2019-06-15T18:55:43.421Z,74.80
2019-06-15T18:58:16.986Z,75.30
2019-06-15T19:00:49.425Z,75.50
2019-06-15T19:03:19.346Z,76.30
2019-06-15T19:05:50.123Z,76.70
2019-06-15T19:08:20.010Z,74.80
2019-06-15T19:10:51.052Z,75.50
2019-06-15T19:13:21.939Z,73.40
2019-06-15T19:15:57.016Z,71.10
2019-06-15T19:18:26.214Z,69.60
2019-06-15T19:20:56.308Z,69.70
2019-06-15T19:23:26.710Z,69.20
2019-06-15T19:25:58.235Z,68.70
2019-06-15T19:28:29.357Z,67.20
2019-06-15T19:31:02.272Z,66.50
2019-06-15T19:33:32.180Z,66.50
2019-06-15T19:36:01.939Z,65.20
2019-06-15T19:38:31.795Z,65.10
2019-06-15T19:41:02.839Z,64.60
2019-06-15T19:43:36.133Z,64.40
2019-06-15T19:46:10.348Z,64.70
2019-06-15T19:48:47.299Z,64.90
2019-06-15T19:51:17.192Z,64.90
2019-06-15T19:53:49.483Z,64.90
2019-06-15T19:56:26.012Z,65.30
2019-06-15T19:59:01.826Z,65.50
2019-06-15T20:01:29.345Z,65.20
2019-06-15T20:03:59.578Z,65.80
2019-06-15T20:06:33.304Z,65.20
2019-06-15T20:09:07.215Z,65.20
2019-06-15T20:11:37.410Z,65.20
2019-06-15T20:14:09.926Z,65.50
2019-06-15T20:16:43.466Z,65.70
2019-06-15T20:19:26.594Z,65.70
2019-06-15T20:22:00.785Z,66.10
2019-06-15T20:24:32.552Z,66.40
2019-06-15T20:27:02.394Z,66.40
2019-06-15T20:29:35.981Z,66.70
2019-06-15T20:32:06.823Z,66.80
2019-06-15T20:34:38.124Z,66.90
2019-06-15T20:37:07.957Z,67.00
2019-06-15T20:39:40.048Z,67.20
2019-06-15T20:42:16.487Z,67.30
2019-06-15T20:44:47.411Z,67.50
2019-06-15T20:47:19.152Z,67.70
2019-06-15T20:49:49.013Z,67.90
2019-06-15T20:52:18.823Z,68.90
2019-06-15T20:54:49.971Z,68.50
2019-06-15T20:57:21.732Z,69.00
2019-06-15T20:59:52.110Z,69.10
2019-06-15T21:02:21.924Z,69.20
2019-06-15T21:04:53.028Z,69.50
2019-06-15T21:07:26.860Z,69.60
2019-06-15T21:09:57.400Z,69.80
2019-06-15T21:12:26.989Z,70.30
2019-06-15T21:14:56.816Z,70.20
2019-06-15T21:17:29.294Z,70.40
2019-06-15T21:20:01.042Z,70.60
2019-06-15T21:22:32.757Z,70.30
2019-06-15T21:25:06.801Z,71.60
2019-06-15T21:27:38.706Z,71.00
2019-06-15T21:30:10.378Z,71.10
2019-06-15T21:32:42.036Z,71.40
2019-06-15T21:35:12.367Z,71.60
2019-06-15T21:37:43.336Z,72.80
2019-06-15T21:40:15.374Z,72.80
2019-06-15T21:42:50.625Z,72.60
2019-06-15T21:45:20.248Z,73.30
2019-06-15T21:47:51.130Z,73.30
2019-06-15T21:50:23.001Z,73.40
2019-06-15T21:52:56.496Z,73.80
2019-06-15T21:55:26.974Z,74.10
2019-06-15T21:57:56.835Z,74.40
2019-06-15T22:00:44.588Z,74.90
2019-06-15T22:03:16.376Z,75.20
2019-06-15T22:05:59.786Z,75.60
2019-06-15T22:08:18.370Z,76.50
2019-06-15T22:10:48.165Z,76.30
2019-06-15T22:13:19.072Z,76.70
2019-06-15T22:15:56.107Z,76.50
2019-06-15T22:18:30.847Z,76.50
2019-06-15T22:21:00.752Z,76.90
2019-06-15T22:23:30.702Z,78.00
2019-06-15T22:26:02.839Z,76.90
2019-06-15T22:28:36.466Z,76.90
2019-06-15T22:31:08.976Z,77.10
2019-06-15T22:33:40.442Z,77.30
2019-06-15T22:36:24.047Z,77.20
2019-06-15T22:38:41.860Z,77.70
2019-06-15T22:41:12.764Z,77.40
2019-06-15T22:43:46.459Z,77.30
2019-06-15T22:46:17.364Z,77.40
2019-06-15T22:48:50.644Z,77.00
2019-06-15T22:51:23.009Z,77.80
2019-06-15T22:53:56.542Z,76.90
2019-06-15T22:56:26.738Z,78.40
2019-06-15T22:58:57.311Z,77.60
2019-06-15T23:01:27.089Z,77.60
2019-06-15T23:03:57.439Z,77.70
2019-06-15T23:06:37.539Z,77.70
2019-06-15T23:08:59.806Z,77.70
2019-06-15T23:11:29.640Z,77.90
2019-06-15T23:14:03.057Z,78.20
2019-06-15T23:16:32.861Z,78.50
2019-06-15T23:19:02.689Z,78.60
2019-06-15T23:21:32.578Z,78.70
2019-06-15T23:24:02.470Z,78.90
2019-06-15T23:26:32.221Z,79.80
2019-06-15T23:29:02.002Z,79.10
2019-06-15T23:31:33.644Z,79.40
2019-06-15T23:34:07.253Z,79.40
2019-06-15T23:36:52.907Z,79.80
2019-06-15T23:39:11.696Z,79.80
2019-06-15T23:41:42.609Z,80.20
2019-06-15T23:44:12.458Z,80.40
2019-06-15T23:46:43.589Z,80.90
2019-06-15T23:49:13.410Z,81.30
2019-06-15T23:51:46.689Z,81.70
2019-06-15T23:54:16.706Z,82.20
2019-06-15T23:56:46.653Z,82.60
2019-06-15T23:59:18.060Z,82.90
